createdAt,value
2023-05-02T00:00:36.970Z,11.97
2023-05-02T00:03:05.624Z,13.20
2023-05-02T00:05:33.951Z,12.97
2023-05-02T00:08:03.207Z,15.03
2023-05-02T00:10:30.964Z,11.83
2023-05-02T00:12:58.671Z,12.23
2023-05-02T00:15:27.537Z,13.77
2023-05-02T00:17:55.371Z,14.83
2023-05-02T00:20:23.429Z,13.13
2023-05-02T00:22:51.252Z,15.37
2023-05-02T00:25:20.598Z,13.53
2023-05-02T00:27:50.870Z,13.17
2023-05-02T00:30:19.610Z,13.23
2023-05-02T00:32:47.705Z,12.23
2023-05-02T00:35:15.435Z,11.17
2023-05-02T00:37:44.171Z,11.30
2023-05-02T00:40:12.983Z,10.07
2023-05-02T00:42:42.096Z,10.53
2023-05-02T00:45:10.411Z,8.77
2023-05-02T00:47:38.210Z,7.37
2023-05-02T00:50:07.216Z,6.87
2023-05-02T00:52:35.324Z,7.13
2023-05-02T00:55:03.861Z,8.13
2023-05-02T00:57:31.664Z,5.27
2023-05-02T01:00:01.445Z,4.93
2023-05-02T01:02:38.644Z,4.43
2023-05-02T01:05:12.787Z,6.37
2023-05-02T01:07:55.086Z,4.40
2023-05-02T01:10:35.929Z,5.70
2023-05-02T01:13:10.495Z,5.80
2023-05-02T01:15:41.789Z,4.47
2023-05-02T01:18:11.377Z,5.20
2023-05-02T01:20:42.092Z,3.40
2023-05-02T01:23:18.464Z,5.73
2023-05-02T01:26:02.368Z,5.43
2023-05-02T01:28:37.721Z,5.93
2023-05-02T01:31:08.012Z,9.63
2023-05-02T01:33:36.744Z,6.27
2023-05-02T01:36:06.191Z,6.43
2023-05-02T01:38:36.163Z,5.60
2023-05-02T01:41:07.382Z,4.03
2023-05-02T01:43:36.677Z,6.17
2023-05-02T01:46:06.080Z,3.40
2023-05-02T01:48:36.533Z,6.90
2023-05-02T01:51:06.322Z,4.00
2023-05-02T01:53:36.776Z,5.03
2023-05-02T01:56:05.968Z,2.70
2023-05-02T01:58:36.616Z,6.17
2023-05-02T02:01:05.982Z,3.70
2023-05-02T02:03:35.277Z,5.20
2023-05-02T02:06:04.643Z,7.30
2023-05-02T02:08:32.591Z,8.00
2023-05-02T02:11:05.348Z,8.63
2023-05-02T02:13:40.809Z,5.70
2023-05-02T02:16:11.803Z,4.27
2023-05-02T02:18:40.917Z,5.47
2023-05-02T02:21:12.124Z,3.63
2023-05-02T02:23:43.425Z,6.37
2023-05-02T02:26:12.142Z,3.37
2023-05-02T02:28:40.753Z,7.37
2023-05-02T02:31:08.585Z,2.27
2023-05-02T02:33:36.415Z,2.23
2023-05-02T02:36:21.249Z,6.53
2023-05-02T02:38:58.125Z,4.00
2023-05-02T02:41:32.572Z,3.37
2023-05-02T02:44:05.837Z,2.37
2023-05-02T02:46:47.954Z,3.77
2023-05-02T02:49:24.562Z,4.13
2023-05-02T02:52:03.614Z,3.73
2023-05-02T02:54:37.034Z,1.63
2023-05-02T02:57:14.495Z,3.73
2023-05-02T02:59:53.530Z,3.83
2023-05-02T03:02:28.519Z,3.13
2023-05-02T03:04:58.341Z,4.80
2023-05-02T03:07:30.517Z,7.13
2023-05-02T03:09:58.995Z,5.70
2023-05-02T03:12:26.806Z,3.17
2023-05-02T03:15:03.748Z,3.07
2023-05-02T03:17:31.572Z,3.63
2023-05-02T03:19:59.415Z,7.80
2023-05-02T03:22:27.393Z,4.43
2023-05-02T03:24:56.515Z,3.90
2023-05-02T03:27:24.470Z,1.50
2023-05-02T03:29:52.255Z,3.83
2023-05-02T03:32:20.017Z,2.73
2023-05-02T03:34:47.744Z,3.83
2023-05-02T03:37:15.439Z,3.97
2023-05-02T03:39:43.227Z,1.53
2023-05-02T03:42:12.289Z,3.20
2023-05-02T03:44:40.324Z,5.33
2023-05-02T03:47:08.484Z,6.97
2023-05-02T03:49:36.895Z,1.80
2023-05-02T03:52:04.639Z,4.07
2023-05-02T03:54:33.489Z,5.40
2023-05-02T03:57:01.480Z,4.33
2023-05-02T03:59:34.059Z,2.67
2023-05-02T04:02:01.887Z,7.77
2023-05-02T04:04:29.740Z,3.43
2023-05-02T04:06:57.493Z,3.97
2023-05-02T04:09:25.774Z,4.03
2023-05-02T04:11:53.737Z,2.47
2023-05-02T04:14:21.519Z,2.93
2023-05-02T04:16:51.010Z,4.00
2023-05-02T04:19:19.192Z,3.30
2023-05-02T04:21:47.163Z,2.93
2023-05-02T04:24:15.248Z,2.20
2023-05-02T04:26:43.128Z,2.73
2023-05-02T04:29:10.980Z,1.80
2023-05-02T04:31:38.828Z,3.57
2023-05-02T04:34:08.471Z,4.37
2023-05-02T04:36:36.205Z,5.30
2023-05-02T04:39:04.894Z,7.50
2023-05-02T04:41:32.640Z,4.43
2023-05-02T04:44:00.447Z,3.10
2023-05-02T04:46:28.364Z,2.43
2023-05-02T04:48:56.284Z,6.10
2023-05-02T04:51:25.530Z,4.97
2023-05-02T04:53:53.286Z,2.30
2023-05-02T04:56:21.900Z,4.27
2023-05-02T04:58:49.647Z,5.67
2023-05-02T05:01:18.104Z,4.23
2023-05-02T05:03:45.971Z,5.07
2023-05-02T05:06:13.717Z,4.33
2023-05-02T05:08:45.474Z,7.40
2023-05-02T05:11:13.354Z,5.33
2023-05-02T05:13:41.986Z,4.83
2023-05-02T05:16:10.182Z,7.70
2023-05-02T05:18:40.677Z,3.10
2023-05-02T05:21:08.793Z,6.33
2023-05-02T05:23:37.178Z,3.73
2023-05-02T05:26:13.087Z,6.83
2023-05-02T05:28:40.886Z,4.83
2023-05-02T05:31:08.931Z,10.37
2023-05-02T05:33:37.193Z,8.03
2023-05-02T05:36:06.883Z,4.83
2023-05-02T05:38:34.785Z,7.77
2023-05-02T05:41:02.707Z,6.87
2023-05-02T05:43:31.837Z,7.07
2023-05-02T05:45:59.660Z,8.50
2023-05-02T05:48:27.483Z,10.17
2023-05-02T05:50:55.384Z,5.27
2023-05-02T05:53:23.226Z,5.53
2023-05-02T05:55:50.960Z,8.53
2023-05-02T05:58:18.707Z,11.60
2023-05-02T06:00:48.018Z,6.23
2023-05-02T06:03:16.233Z,4.23
2023-05-02T06:05:43.975Z,6.07
2023-05-02T06:08:11.629Z,5.43
2023-05-02T06:10:39.369Z,8.73
2023-05-02T06:13:07.100Z,5.00
2023-05-02T06:15:35.567Z,5.40
2023-05-02T06:18:05.027Z,5.47
2023-05-02T06:20:32.794Z,5.37
2023-05-02T06:23:00.575Z,6.10
2023-05-02T06:25:29.034Z,7.70
2023-05-02T06:27:56.837Z,6.77
2023-05-02T06:30:25.781Z,6.67
2023-05-02T06:32:53.603Z,6.07
2023-05-02T06:35:22.709Z,5.13
2023-05-02T06:37:50.403Z,8.83
2023-05-02T06:40:18.261Z,3.80
2023-05-02T06:42:46.006Z,5.20
2023-05-02T06:45:13.817Z,5.07
2023-05-02T06:47:41.652Z,3.97
2023-05-02T06:50:10.394Z,6.57
2023-05-02T06:52:39.593Z,9.70
2023-05-02T06:55:08.267Z,3.87
2023-05-02T06:57:36.049Z,3.47
2023-05-02T07:00:04.872Z,3.20
2023-05-02T07:02:32.604Z,6.53
2023-05-02T07:05:00.480Z,8.70
2023-05-02T07:07:28.322Z,4.93
2023-05-02T07:09:57.560Z,4.50
2023-05-02T07:12:26.794Z,4.33
2023-05-02T07:14:54.514Z,5.07
2023-05-02T07:17:22.592Z,4.97
2023-05-02T07:19:51.279Z,4.33
2023-05-02T07:22:19.210Z,3.43
2023-05-02T07:24:47.061Z,3.03
2023-05-02T07:27:16.176Z,3.10
2023-05-02T07:29:44.069Z,3.90
2023-05-02T07:32:11.952Z,4.57
2023-05-02T07:34:39.860Z,6.17
2023-05-02T07:37:07.539Z,5.07
2023-05-02T07:39:35.188Z,4.70
2023-05-02T07:42:03.775Z,5.43
2023-05-02T07:44:35.018Z,4.00
2023-05-02T07:47:02.741Z,4.67
2023-05-02T07:49:31.092Z,4.70
2023-05-02T07:51:58.804Z,4.23
2023-05-02T07:54:27.719Z,4.70
2023-05-02T07:56:58.232Z,3.87
2023-05-02T07:59:26.291Z,7.33
2023-05-02T08:01:55.453Z,4.27
2023-05-02T08:04:23.361Z,4.90
2023-05-02T08:06:51.429Z,4.93
2023-05-02T08:09:19.269Z,10.10
2023-05-02T08:11:47.144Z,2.27
2023-05-02T08:14:15.027Z,3.73
2023-05-02T08:16:44.757Z,2.00
2023-05-02T08:19:16.138Z,3.57
2023-05-02T08:21:43.965Z,6.47
2023-05-02T08:24:14.656Z,4.40
2023-05-02T08:26:42.504Z,3.10
2023-05-02T08:29:11.680Z,6.23
2023-05-02T08:31:39.685Z,3.47
2023-05-02T08:34:07.519Z,1.80
2023-05-02T08:36:37.391Z,5.13
2023-05-02T08:39:05.371Z,3.57
2023-05-02T08:41:33.446Z,3.17
2023-05-02T08:44:01.740Z,4.30
2023-05-02T08:46:30.085Z,3.17
2023-05-02T08:48:59.932Z,4.40
2023-05-02T08:51:29.786Z,1.73
2023-05-02T08:54:03.250Z,4.77
2023-05-02T08:56:31.447Z,1.50
2023-05-02T08:58:59.394Z,4.90
2023-05-02T09:01:32.588Z,1.93
2023-05-02T09:04:00.467Z,2.90
2023-05-02T09:06:29.254Z,4.57
2023-05-02T09:09:03.499Z,2.83
2023-05-02T09:11:31.486Z,2.03
2023-05-02T09:14:04.208Z,3.30
2023-05-02T09:16:40.312Z,4.60
2023-05-02T09:19:08.304Z,3.60
2023-05-02T09:21:41.330Z,3.27
2023-05-02T09:24:21.211Z,3.57
2023-05-02T09:26:59.056Z,2.07
2023-05-02T09:29:30.762Z,3.23
2023-05-02T09:31:58.753Z,3.20
2023-05-02T09:34:26.615Z,1.20
2023-05-02T09:36:54.944Z,4.43
2023-05-02T09:39:26.280Z,5.33
2023-05-02T09:41:54.798Z,3.53
2023-05-02T09:44:24.157Z,2.57
2023-05-02T09:46:54.186Z,1.57
2023-05-02T09:49:40.797Z,2.70
2023-05-02T09:52:12.339Z,5.47
2023-05-02T09:54:41.512Z,3.60
2023-05-02T09:57:14.934Z,2.80
2023-05-02T09:59:55.324Z,3.47
2023-05-02T10:02:23.514Z,3.77
2023-05-02T10:04:53.711Z,4.43
2023-05-02T10:07:22.231Z,4.10
2023-05-02T10:09:55.395Z,5.83
2023-05-02T10:12:27.899Z,4.03
2023-05-02T10:15:01.578Z,4.63
2023-05-02T10:17:32.892Z,2.97
2023-05-02T10:20:04.805Z,3.03
2023-05-02T10:22:34.815Z,2.57
2023-05-02T10:25:04.796Z,4.87
2023-05-02T10:27:34.128Z,2.23
2023-05-02T10:30:04.316Z,4.63
2023-05-02T10:32:35.457Z,2.90
2023-05-02T10:35:05.616Z,4.23
2023-05-02T10:37:42.872Z,2.70
2023-05-02T10:40:15.905Z,4.40
2023-05-02T10:42:49.044Z,4.90
2023-05-02T10:45:34.674Z,8.37
2023-05-02T10:48:21.036Z,3.47
2023-05-02T10:50:54.109Z,5.03
2023-05-02T10:53:26.867Z,4.53
2023-05-02T10:56:32.948Z,3.63
2023-05-02T10:59:35.316Z,3.30
2023-05-02T11:02:06.981Z,5.63
2023-05-02T11:05:05.494Z,4.33
2023-05-02T11:07:35.358Z,6.30
2023-05-02T11:10:32.877Z,4.27
2023-05-02T11:13:04.430Z,2.23
2023-05-02T11:16:06.834Z,4.73
2023-05-02T11:19:04.258Z,4.80
2023-05-02T11:21:35.372Z,5.43
2023-05-02T11:24:44.623Z,2.47
2023-05-02T11:27:44.623Z,7.30
2023-05-02T11:30:15.442Z,2.40
2023-05-02T11:33:23.169Z,3.27
2023-05-02T11:35:51.158Z,1.80
2023-05-02T11:38:24.242Z,5.53
2023-05-02T11:41:05.452Z,5.00
2023-05-02T11:43:34.693Z,4.60
2023-05-02T11:46:13.251Z,4.87
2023-05-02T11:48:45.100Z,5.53
2023-05-02T11:51:14.599Z,4.07
2023-05-02T11:53:43.255Z,3.53
2023-05-02T11:56:11.058Z,3.63
2023-05-02T11:58:48.454Z,3.57
2023-05-02T12:01:23.039Z,2.77
2023-05-02T12:04:04.526Z,4.27
2023-05-02T12:06:35.138Z,5.73
2023-05-02T12:09:16.130Z,3.63
2023-05-02T12:11:44.896Z,2.63
2023-05-02T12:14:14.769Z,4.37
2023-05-02T12:16:45.134Z,3.57
2023-05-02T12:19:14.522Z,2.73
2023-05-02T12:21:44.773Z,4.90
2023-05-02T12:24:26.217Z,3.47
2023-05-02T12:27:14.354Z,3.47
2023-05-02T12:29:45.289Z,6.10
2023-05-02T12:32:15.838Z,3.73
2023-05-02T12:34:44.561Z,2.20
2023-05-02T12:37:26.024Z,4.77
2023-05-02T12:39:55.565Z,2.80
2023-05-02T12:42:28.533Z,2.93
2023-05-02T12:44:57.129Z,3.80
2023-05-02T12:47:31.852Z,4.10
2023-05-02T12:50:03.398Z,6.10
2023-05-02T12:52:57.630Z,5.83
2023-05-02T12:55:27.341Z,4.13
2023-05-02T12:58:03.353Z,5.97
2023-05-02T13:00:46.523Z,2.50
2023-05-02T13:03:17.570Z,3.90
2023-05-02T13:05:45.463Z,4.37
2023-05-02T13:08:16.140Z,3.90
2023-05-02T13:10:44.658Z,3.60
2023-05-02T13:13:12.472Z,3.33
2023-05-02T13:15:40.986Z,3.77
2023-05-02T13:18:12.359Z,3.20
2023-05-02T13:20:44.786Z,3.53
2023-05-02T13:23:12.819Z,2.13
2023-05-02T13:25:40.985Z,3.43
2023-05-02T13:28:08.766Z,2.53
2023-05-02T13:30:36.683Z,4.07
2023-05-02T13:33:04.612Z,3.27
2023-05-02T13:35:34.071Z,3.77
2023-05-02T13:38:04.453Z,4.90
2023-05-02T13:40:32.276Z,4.17
2023-05-02T13:43:00.202Z,2.17
2023-05-02T13:45:28.005Z,2.73
2023-05-02T13:47:55.792Z,6.77
2023-05-02T13:50:24.139Z,2.87
2023-05-02T13:52:51.897Z,2.43
2023-05-02T13:55:21.281Z,1.80
2023-05-02T13:57:49.897Z,3.97
2023-05-02T14:00:18.297Z,2.47
2023-05-02T14:02:48.625Z,6.13
2023-05-02T14:05:16.585Z,2.67
2023-05-02T14:07:44.354Z,4.60
2023-05-02T14:10:12.177Z,3.80
2023-05-02T14:12:41.656Z,4.77
2023-05-02T14:15:10.241Z,5.30
2023-05-02T14:17:38.006Z,2.30
2023-05-02T14:20:07.595Z,2.90
2023-05-02T14:22:35.563Z,2.53
2023-05-02T14:25:03.260Z,4.27
2023-05-02T14:27:31.187Z,3.57
2023-05-02T14:30:01.619Z,4.40
2023-05-02T14:32:29.519Z,6.20
2023-05-02T14:34:57.386Z,4.63
2023-05-02T14:37:25.334Z,3.13
2023-05-02T14:39:56.084Z,4.57
2023-05-02T14:42:23.891Z,2.37
2023-05-02T14:44:52.381Z,3.00
2023-05-02T14:47:22.666Z,3.00
2023-05-02T14:49:50.512Z,3.33
2023-05-02T14:52:18.269Z,3.97
2023-05-02T14:54:47.054Z,2.00
2023-05-02T14:57:15.565Z,5.40
2023-05-02T14:59:43.508Z,7.13
2023-05-02T15:02:11.632Z,3.67
2023-05-02T15:04:40.913Z,8.53
2023-05-02T15:07:08.872Z,4.77
2023-05-02T15:09:36.867Z,2.73
2023-05-02T15:12:04.907Z,4.53
2023-05-02T15:14:32.669Z,3.27
2023-05-02T15:17:00.734Z,4.30
2023-05-02T15:19:28.609Z,2.63
2023-05-02T15:21:58.341Z,5.77
2023-05-02T15:24:26.107Z,12.30
2023-05-02T15:26:54.225Z,5.37
2023-05-02T15:29:22.245Z,4.13
2023-05-02T15:31:50.154Z,4.60
2023-05-02T15:34:18.020Z,3.53
2023-05-02T15:36:45.832Z,1.67
2023-05-02T15:39:14.921Z,5.80
2023-05-02T15:41:43.052Z,4.53
2023-05-02T15:44:10.964Z,4.30
2023-05-02T15:46:39.363Z,3.93
2023-05-02T15:49:07.330Z,5.33
2023-05-02T15:51:35.105Z,2.77
2023-05-02T15:54:03.186Z,10.10
2023-05-02T15:56:32.393Z,5.20
2023-05-02T15:59:00.382Z,3.30
2023-05-02T16:01:28.341Z,6.63
2023-05-02T16:03:56.291Z,6.37
2023-05-02T16:06:24.449Z,2.57
2023-05-02T16:08:52.341Z,2.87
2023-05-02T16:11:20.053Z,4.00
2023-05-02T16:13:49.166Z,5.33
2023-05-02T16:16:17.056Z,7.57
2023-05-02T16:18:44.879Z,3.03
2023-05-02T16:21:12.745Z,3.53
2023-05-02T16:23:40.490Z,9.30
2023-05-02T16:26:08.296Z,6.70
2023-05-02T16:28:36.109Z,6.37
2023-05-02T16:31:10.983Z,4.20
2023-05-02T16:33:39.004Z,3.87
2023-05-02T16:36:07.668Z,5.67
2023-05-02T16:38:36.346Z,2.70
2023-05-02T16:41:05.197Z,5.33
2023-05-02T16:43:33.520Z,3.13
2023-05-02T16:46:02.477Z,3.30
2023-05-02T16:48:31.850Z,3.27
2023-05-02T16:51:01.062Z,3.63
2023-05-02T16:53:30.613Z,4.40
2023-05-02T16:55:59.413Z,4.47
2023-05-02T16:58:29.230Z,4.93
2023-05-02T17:00:57.243Z,2.73
2023-05-02T17:03:25.066Z,2.63
2023-05-02T17:05:54.469Z,4.20
2023-05-02T17:08:22.345Z,3.97
2023-05-02T17:10:50.555Z,4.37
2023-05-02T17:13:18.485Z,2.70
2023-05-02T17:15:46.440Z,4.23
2023-05-02T17:18:14.317Z,2.20
2023-05-02T17:20:42.256Z,3.73
2023-05-02T17:23:11.412Z,3.20
2023-05-02T17:25:39.406Z,7.17
2023-05-02T17:28:07.766Z,5.37
2023-05-02T17:30:35.686Z,3.47
2023-05-02T17:33:03.618Z,1.77
2023-05-02T17:35:31.677Z,3.37
2023-05-02T17:37:59.369Z,3.47
2023-05-02T17:40:29.850Z,3.77
2023-05-02T17:42:58.854Z,2.47
2023-05-02T17:45:29.900Z,4.07
2023-05-02T17:47:57.891Z,2.77
2023-05-02T17:50:26.212Z,2.60
2023-05-02T17:52:54.469Z,3.30
2023-05-02T17:55:22.239Z,0.93
2023-05-02T17:57:51.367Z,1.07
2023-05-02T18:00:19.872Z,1.70
2023-05-02T18:02:47.796Z,3.63
2023-05-02T18:05:17.516Z,2.93
2023-05-02T18:07:45.656Z,2.47
2023-05-02T18:10:13.545Z,2.50
2023-05-02T18:12:42.080Z,2.60
2023-05-02T18:15:11.736Z,4.80
2023-05-02T18:17:39.792Z,2.97
2023-05-02T18:20:10.128Z,0.90
2023-05-02T18:22:38.068Z,4.20
2023-05-02T18:25:06.900Z,2.10
2023-05-02T18:27:34.930Z,1.60
2023-05-02T18:30:03.646Z,1.33
2023-05-02T18:32:34.707Z,3.47
2023-05-02T18:35:03.960Z,2.70
2023-05-02T18:37:32.453Z,2.00
2023-05-02T18:40:00.315Z,1.87
2023-05-02T18:42:28.328Z,2.93
2023-05-02T18:44:56.371Z,1.80
2023-05-02T18:47:24.585Z,3.40
2023-05-02T18:49:56.364Z,1.93
2023-05-02T18:52:25.558Z,1.80
2023-05-02T18:54:53.272Z,3.87
2023-05-02T18:57:21.564Z,2.87
2023-05-02T18:59:49.348Z,4.23
2023-05-02T19:02:17.243Z,4.80
2023-05-02T19:04:45.099Z,2.87
2023-05-02T19:07:14.520Z,1.43
2023-05-02T19:09:42.543Z,4.17
2023-05-02T19:12:24.247Z,3.53
2023-05-02T19:14:52.112Z,4.60
2023-05-02T19:17:21.931Z,7.30
2023-05-02T19:19:51.984Z,4.77
2023-05-02T19:22:22.272Z,4.10
2023-05-02T19:24:51.021Z,4.53
2023-05-02T19:27:19.039Z,2.80
2023-05-02T19:29:46.780Z,3.17
2023-05-02T19:32:15.714Z,2.07
2023-05-02T19:34:43.480Z,1.20
2023-05-02T19:37:11.278Z,3.03
2023-05-02T19:39:40.378Z,3.47
2023-05-02T19:42:08.169Z,2.50
2023-05-02T19:44:36.006Z,3.37
2023-05-02T19:47:03.812Z,2.07
2023-05-02T19:49:31.631Z,3.57
2023-05-02T19:51:59.413Z,2.43
2023-05-02T19:54:27.172Z,1.00
2023-05-02T19:56:56.311Z,4.00
2023-05-02T19:59:24.021Z,1.67
2023-05-02T20:01:52.573Z,2.53
2023-05-02T20:04:20.678Z,1.37
2023-05-02T20:06:48.514Z,1.00
2023-05-02T20:09:17.148Z,2.13
2023-05-02T20:11:45.049Z,1.33
2023-05-02T20:14:14.291Z,0.93
2023-05-02T20:16:42.131Z,3.03
2023-05-02T20:19:09.906Z,1.57
2023-05-02T20:21:37.801Z,2.27
2023-05-02T20:24:06.411Z,2.10
2023-05-02T20:26:34.622Z,1.80
2023-05-02T20:29:03.498Z,2.43
2023-05-02T20:31:32.814Z,1.50
2023-05-02T20:34:01.177Z,2.43
2023-05-02T20:36:30.865Z,1.60
2023-05-02T20:38:58.883Z,1.83
2023-05-02T20:41:27.856Z,2.77
2023-05-02T20:43:57.105Z,2.13
2023-05-02T20:46:24.965Z,2.43
2023-05-02T20:48:54.103Z,4.83
2023-05-02T20:51:22.153Z,2.93
2023-05-02T20:53:49.943Z,4.27
2023-05-02T20:56:17.733Z,2.60
2023-05-02T20:58:45.500Z,2.50
2023-05-02T21:01:13.523Z,1.93
2023-05-02T21:03:41.483Z,3.23
2023-05-02T21:06:10.893Z,1.40
2023-05-02T21:08:38.643Z,1.47
2023-05-02T21:11:13.849Z,2.67
2023-05-02T21:13:41.774Z,1.87
2023-05-02T21:16:15.885Z,2.80
2023-05-02T21:18:43.772Z,1.87
2023-05-02T21:21:13.035Z,3.47
2023-05-02T21:23:40.901Z,1.70
2023-05-02T21:26:08.900Z,1.87
2023-05-02T21:28:37.985Z,1.27
2023-05-02T21:31:05.920Z,2.50
2023-05-02T21:33:33.777Z,2.10
2023-05-02T21:36:01.608Z,2.07
2023-05-02T21:38:30.891Z,1.67
2023-05-02T21:41:03.615Z,1.90
2023-05-02T21:43:31.827Z,2.40
2023-05-02T21:45:59.503Z,1.20
2023-05-02T21:48:27.189Z,3.90
2023-05-02T21:50:54.960Z,1.40
2023-05-02T21:53:22.778Z,2.33
2023-05-02T21:55:52.282Z,2.23
2023-05-02T21:58:20.083Z,4.47
2023-05-02T22:00:47.857Z,3.10
2023-05-02T22:03:15.751Z,2.80
2023-05-02T22:05:43.634Z,2.33
2023-05-02T22:08:12.932Z,3.57
2023-05-02T22:10:42.461Z,4.20
2023-05-02T22:13:14.668Z,4.10
2023-05-02T22:15:43.013Z,5.10
2023-05-02T22:18:10.887Z,2.30
2023-05-02T22:20:38.915Z,1.90
2023-05-02T22:23:07.255Z,3.60
2023-05-02T22:25:35.810Z,0.97
2023-05-02T22:28:06.846Z,3.90
2023-05-02T22:30:35.871Z,2.07
2023-05-02T22:33:04.301Z,2.27
2023-05-02T22:35:32.092Z,2.83
2023-05-02T22:38:01.402Z,3.20
2023-05-02T22:40:30.257Z,1.87
2023-05-02T22:42:58.165Z,1.93
2023-05-02T22:45:26.909Z,2.43
2023-05-02T22:47:56.158Z,2.27
2023-05-02T22:50:26.284Z,2.33
2023-05-02T22:52:56.885Z,3.23
2023-05-02T22:55:25.252Z,3.00
2023-05-02T22:57:53.405Z,2.33
2023-05-02T23:00:22.549Z,2.60
2023-05-02T23:02:50.340Z,2.17
2023-05-02T23:05:19.874Z,5.70
2023-05-02T23:07:47.659Z,2.43
2023-05-02T23:10:15.719Z,2.93
2023-05-02T23:12:43.581Z,2.63
2023-05-02T23:15:11.895Z,2.90
2023-05-02T23:17:41.100Z,3.03
2023-05-02T23:20:11.341Z,2.30
2023-05-02T23:22:44.931Z,2.63
2023-05-02T23:25:13.621Z,3.07
2023-05-02T23:27:41.329Z,3.37
2023-05-02T23:30:10.166Z,2.17
2023-05-02T23:32:38.441Z,2.13
2023-05-02T23:35:07.186Z,4.97
2023-05-02T23:37:35.193Z,4.80
2023-05-02T23:40:04.966Z,2.97
2023-05-02T23:42:34.289Z,2.23
2023-05-02T23:45:01.983Z,4.13
2023-05-02T23:47:29.784Z,2.73
2023-05-02T23:49:57.703Z,3.80
2023-05-02T23:52:25.846Z,4.80
2023-05-02T23:54:53.620Z,4.13
2023-05-02T23:57:22.749Z,2.77
2023-05-02T23:59:50.691Z,2.70
